Hlavní strana
METAR-TAF:

METAR-TAF

Letiště :

Letiště Madeira

Funchal, Madeira, Portugalsko

zeměpisná šířka: 32-41-52N, zeměpisná délka: 016-46-28W, výška: 59 m

Aktuální stav počasí

Zpráva byla vytvořena před 25 minutami, v 08:30 UTC
Severní vítr 11 kt, proměnlivý mezi severozápadním a severovýchodním
Teplota 22°C
Vlhkost vzduchu 60%
Tlak 1025 hPa
Viditelnost 10 km a více
Skoro jasno ve výšce 1600 ft
Oblačno až skoro zataženo ve výšce 3000 ft

METAR: LPMA 160830Z 01011KT 320V050 9999 FEW016 BKN030 22/14 Q1025

Čas: 09:55 (08:55 UTC)

Předpověď počasí

Zpráva byla vytvořena před 3 hodinami a 55 minutami, v 05:00 UTC
Předpověď platná od 16 v 06 UTC do 17 v 06 UTC
Severní vítr 12 kt
Viditelnost 10 km a více
Polojasno ve výšce 1500 ft
Pravděpodobnost 40% :
Dočasný
od 16 v 06 UTC do 17 v 06 UTC
Severní vítr 15 kt s nárazy do 25 kt

TAF: LPMA 160500Z 1606/1706 01012KT 9999 SCT015 PROB40 TEMPO 1606/1706 01015G25KT

Stav a předpovědi počasí z více než 4 000 letišť (zprávy METAR a TAF).

Červené a žluté tečky na mapě představují dostupné meteorologické stanice.

Když kurzor umístíte na tečku, zobrazí se název stanice.

Pak kliknutím zobrazíte stav a předpověď počasí.

Chcete-li změnit mapu, kliknutím na zelené tlačítko se znaménkem +mapu přiblížíte, kliknutím na zelené tlačítko se znaménkem – mapu oddálíte a kliknutím na zelené šipky přejdete na sousední mapy.


METAR-TAF: